Tsabong, Botswana
Current Conditions -  °F | °C
As of 4:00 PM on Thursday 30 Oct 2014 (Local Time) from FAUP Reporting Station
Clear Clear  
Wind Chill: 84°   Ceiling: Unl
Heat Index: 84°   Visibility: 6mi
Dew Point: 30°   Wind: 7mph
Humidity: 14%   Direction: 250°WSW
Pressure: 29.97"   Gusts: NA
Location:  26.01°S, 22.4°E
Report Text: FAUP 301400Z 25006KT CAVOK 29/M01 Q1015 NOSIG
Loading
Personal Weather Stations






























Interactive Weather Map
Tropical Storm Tracking
New forecast layout! Learn more

10-Day Weather Forecast

Advertisements
Track Severe Weather on mobile